Time;durP1;ratioP1;P1;durP2;ratioP2;P2;SDS_P1;SDS_P2;PMS_P1;PMS_P2;Temp;Humidity;BMP_temperature;BMP_pressure;BME280_temperature;BME280_humidity;BME280_pressure;Samples;Min_cycle;Max_cycle;Signal;HPM_P1;HPM_P2
2022/07/17 00:01:07;;;;;;;7.43;2.85;;;11.90;99.90;;;-144.05;64.40;125687.94;6161643;23;20017;-89
2022/07/17 00:03:33;;;;;;;10.07;2.50;;;11.90;99.90;;;-144.05;64.25;125687.94;6137267;23;20009;-90
2022/07/17 00:05:59;;;;;;;7.35;2.83;;;11.90;99.90;;;-144.05;64.36;125687.94;6138515;23;20033;-89
2022/07/17 00:08:25;;;;;;;6.40;3.13;;;11.90;99.90;;;-144.05;64.69;125687.94;6166478;23;20040;-89
2022/07/17 00:10:52;;;;;;;9.90;3.38;;;11.90;99.90;;;-144.05;64.67;125687.94;6147455;23;20032;-87
2022/07/17 00:13:18;;;;;;;8.25;3.00;;;11.90;99.90;;;-144.05;64.99;125687.94;6172904;23;20048;-89
2022/07/17 00:15:44;;;;;;;7.85;3.65;;;11.80;99.90;;;-144.05;65.29;125687.94;6163453;23;20010;-89
2022/07/17 00:18:11;;;;;;;8.35;3.17;;;11.80;99.90;;;-144.05;65.36;125687.94;6163666;23;20013;-89
2022/07/17 00:20:37;;;;;;;8.93;3.45;;;11.70;99.90;;;-144.05;65.56;125687.94;6165466;23;20009;-90
2022/07/17 00:23:03;;;;;;;9.13;3.92;;;11.60;99.90;;;-144.05;65.99;125687.94;6164964;23;20029;-90
2022/07/17 00:25:32;;;;;;;6.43;3.78;;;11.60;99.90;;;-144.05;65.86;125687.94;6165769;23;20005;-91
2022/07/17 00:27:58;;;;;;;5.57;2.90;;;11.50;99.90;;;-144.05;66.39;125687.94;6168003;23;20092;-89
2022/07/17 00:30:24;;;;;;;11.70;3.70;;;11.70;99.90;;;-144.05;66.27;125687.94;6181642;23;20001;-90
2022/07/17 00:32:50;;;;;;;7.80;2.97;;;11.40;99.90;;;-144.05;66.39;125687.94;6181672;23;20056;-89
2022/07/17 00:35:16;;;;;;;9.18;3.53;;;11.40;99.90;;;-144.05;66.62;125687.94;6176622;23;20023;-89
2022/07/17 00:37:46;;;;;;;7.38;3.20;;;11.40;99.90;;;-144.05;66.83;125687.94;6134923;23;20009;-89
2022/07/17 00:40:21;;;;;;;7.72;3.70;;;11.40;99.90;;;-144.05;67.08;125687.94;6160353;23;20006;-86
2022/07/17 00:42:48;;;;;;;6.25;2.80;;;11.40;99.90;;;-144.05;67.20;125687.94;6161161;23;20056;-89
2022/07/17 00:45:15;;;;;;;11.30;3.55;;;11.40;99.90;;;-144.05;67.36;125687.94;6158872;23;20009;-89
2022/07/17 00:48:09;;;;;;;6.22;3.45;;;11.40;99.90;;;-144.05;67.15;125687.94;6158819;23;20013;-89
2022/07/17 00:50:41;;;;;;;8.13;4.53;;;11.40;99.90;;;-144.05;67.40;125687.94;6133118;23;20009;-88
2022/07/17 00:53:10;;;;;;;7.30;3.83;;;11.40;99.90;;;-144.05;67.42;125687.94;6133487;23;20397;-88
2022/07/17 00:55:37;;;;;;;8.90;3.95;;;11.30;99.90;;;-144.05;67.60;125687.94;6132980;23;20092;-90
2022/07/17 00:58:06;;;;;;;12.75;3.50;;;11.20;99.90;;;-144.05;67.88;125687.94;6158375;23;20056;-88
2022/07/17 01:00:32;;;;;;;7.90;3.50;;;11.20;99.90;;;-144.05;68.01;125687.94;6156837;23;20013;-87
2022/07/17 01:02:58;;;;;;;5.90;2.95;;;11.30;99.90;;;-144.05;67.79;125687.94;6157439;23;20449;-89
2022/07/17 01:05:24;;;;;;;8.02;3.42;;;11.30;99.90;;;-144.05;67.42;125687.94;6157237;23;20009;-87
2022/07/17 01:07:52;;;;;;;9.85;3.58;;;11.30;99.90;;;-144.05;67.86;125687.94;6156389;23;20032;-87
2022/07/17 01:10:19;;;;;;;7.43;4.30;;;11.20;99.90;;;-144.05;67.94;125687.94;6132124;23;20036;-88
2022/07/17 01:12:47;;;;;;;7.15;3.00;;;11.10;99.90;;;-144.05;68.00;125687.94;6157059;23;20032;-88
2022/07/17 01:15:15;;;;;;;7.55;3.72;;;11.10;99.90;;;-144.05;67.99;125687.94;6156851;23;20519;-88
2022/07/17 01:17:43;;;;;;;7.40;3.40;;;11.00;99.90;;;-144.05;68.25;125687.94;6157149;23;20016;-89
2022/07/17 01:20:12;;;;;;;6.85;3.38;;;11.10;99.90;;;-144.05;68.71;125687.94;6156895;23;20005;-88
2022/07/17 01:22:50;;;;;;;8.35;3.80;;;10.90;99.90;;;-144.05;69.01;125687.94;6156848;23;20331;-89
2022/07/17 01:25:21;;;;;;;7.07;3.25;;;10.90;99.90;;;-144.05;69.06;125687.94;6156773;23;20068;-87
2022/07/17 01:27:48;;;;;;;7.13;3.60;;;10.80;99.90;;;-144.05;69.25;125687.94;6131784;23;20014;-87
2022/07/17 01:30:14;;;;;;;8.75;3.58;;;10.80;99.90;;;-144.05;69.63;125687.94;6131966;23;20055;-87
2022/07/17 01:32:42;;;;;;;6.75;3.13;;;10.80;99.90;;;-144.05;69.45;125687.94;6158376;23;20459;-88
2022/07/17 01:35:13;;;;;;;9.13;3.40;;;10.70;99.90;;;-144.05;69.73;125687.94;6156465;23;20013;-88
2022/07/17 01:37:41;;;;;;;5.72;3.42;;;11.00;99.90;;;-144.05;69.90;125687.94;6156934;23;20009;-86
2022/07/17 01:40:12;;;;;;;5.68;3.50;;;10.70;99.90;;;-144.05;70.15;125687.94;6156557;23;20100;-88
2022/07/17 01:42:42;;;;;;;10.13;3.30;;;10.70;99.90;;;-144.05;70.25;125687.94;6157018;23;20089;-88
2022/07/17 01:45:10;;;;;;;8.70;3.58;;;10.80;99.90;;;-144.05;70.13;125687.94;6132632;23;20086;-88
2022/07/17 01:47:36;;;;;;;7.75;3.47;;;10.70;99.90;;;-144.05;70.18;125687.94;6158550;23;20040;-88
2022/07/17 01:50:06;;;;;;;5.97;2.72;;;10.70;99.90;;;-144.05;70.64;125687.94;6157245;23;20010;-88
2022/07/17 01:52:37;;;;;;;8.38;3.30;;;10.70;99.90;;;-144.05;70.27;125687.94;6156759;23;20461;-89
2022/07/17 01:55:12;;;;;;;7.85;3.35;;;10.70;99.90;;;-144.05;70.94;125687.94;6157106;23;20435;-88
2022/07/17 01:57:39;;;;;;;8.00;3.50;;;10.60;99.90;;;-144.05;70.69;125687.94;6157365;23;20064;-90
2022/07/17 02:00:14;;;;;;;9.20;3.65;;;10.60;99.90;;;-144.05;70.57;125687.94;6157301;23;20013;-89
2022/07/17 02:02:40;;;;;;;7.80;3.58;;;10.60;99.90;;;-144.05;70.63;125687.94;6157289;23;20017;-88
2022/07/17 02:05:07;;;;;;;8.57;3.58;;;10.50;99.90;;;-144.05;71.05;125687.94;6156856;23;20013;-85
2022/07/17 02:07:34;;;;;;;8.60;3.55;;;10.50;99.90;;;-144.05;71.11;125687.94;6156843;23;20503;-86
2022/07/17 02:10:01;;;;;;;4.57;2.80;;;10.50;99.90;;;-144.05;71.13;125687.94;6157286;23;20020;-86
2022/07/17 02:12:27;;;;;;;8.95;3.40;;;10.50;99.90;;;-144.05;71.06;125687.94;6157638;23;20017;-85
2022/07/17 02:14:53;;;;;;;6.20;3.08;;;10.40;99.90;;;-144.05;71.04;125687.94;6158586;23;20230;-88
2022/07/17 02:17:19;;;;;;;7.82;3.38;;;10.40;99.90;;;-144.05;71.38;125687.94;6159494;23;20006;-88
2022/07/17 02:19:44;;;;;;;5.63;3.42;;;10.30;99.90;;;-144.05;71.52;125687.94;6133555;23;20010;-89
2022/07/17 02:22:10;;;;;;;5.50;2.97;;;10.40;99.90;;;-144.05;71.90;125687.94;6158296;23;20020;-88
2022/07/17 02:24:36;;;;;;;5.90;3.20;;;10.40;99.90;;;-144.05;72.00;125687.94;6172195;23;20005;-86
2022/07/17 02:27:02;;;;;;;7.13;3.10;;;10.40;99.90;;;-144.05;72.40;125687.94;6174971;23;20002;-89
2022/07/17 02:29:28;;;;;;;10.95;2.97;;;10.40;99.90;;;-144.05;72.08;125687.94;6164810;23;20475;-89
2022/07/17 02:31:54;;;;;;;6.53;3.15;;;10.40;99.90;;;-144.05;72.09;125687.94;6162680;23;20006;-88
2022/07/17 02:34:20;;;;;;;8.63;3.70;;;10.40;99.90;;;-144.05;72.47;125687.94;6168761;23;20057;-88
2022/07/17 02:36:46;;;;;;;5.60;3.00;;;10.40;99.90;;;-144.05;72.57;125687.94;6157078;23;20005;-88
2022/07/17 02:39:12;;;;;;;8.43;3.50;;;10.30;99.90;;;-144.05;72.64;125687.94;6181487;23;20001;-89
2022/07/17 02:41:38;;;;;;;7.18;2.88;;;10.30;99.90;;;-144.05;72.59;125687.94;6181557;23;20016;-89
2022/07/17 02:44:04;;;;;;;6.03;2.97;;;10.30;99.90;;;-144.05;72.72;125687.94;6157026;23;20016;-89
2022/07/17 02:46:30;;;;;;;9.13;3.00;;;10.30;99.90;;;-144.05;72.81;125687.94;6181162;23;20065;-88
2022/07/17 02:48:56;;;;;;;5.78;3.03;;;10.30;99.90;;;-144.05;72.65;125687.94;6181172;23;19997;-88
2022/07/17 02:51:21;;;;;;;6.43;3.28;;;10.30;99.90;;;-144.05;72.85;125687.94;6164631;23;20028;-86
2022/07/17 02:53:47;;;;;;;7.32;3.08;;;10.20;99.90;;;-144.05;73.21;125687.94;6164940;23;20037;-88
2022/07/17 02:56:13;;;;;;;11.00;3.72;;;10.20;99.90;;;-144.05;73.07;125687.94;6161206;23;20064;-87
2022/07/17 02:58:39;;;;;;;5.55;3.05;;;10.10;99.90;;;-144.05;73.06;125687.94;6160672;23;20012;-86
2022/07/17 03:01:05;;;;;;;7.05;3.25;;;10.10;99.90;;;-144.05;73.50;125687.94;6154978;23;20020;-87
2022/07/17 03:03:31;;;;;;;7.60;3.17;;;10.10;99.90;;;-144.05;73.57;125687.94;6155570;23;20044;-86
2022/07/17 03:05:57;;;;;;;5.75;2.55;;;10.00;99.90;;;-144.05;73.87;125687.94;6155118;23;20010;-86
2022/07/17 03:08:23;;;;;;;6.57;2.95;;;10.00;99.90;;;-144.05;74.14;125687.94;6154670;23;20087;-86
2022/07/17 03:10:49;;;;;;;7.20;3.20;;;10.00;99.90;;;-144.05;74.26;125687.94;6155910;23;20013;-87
2022/07/17 03:13:15;;;;;;;6.82;2.72;;;10.00;99.90;;;-144.05;74.30;125687.94;6155440;23;20028;-89
2022/07/17 03:15:41;;;;;;;5.88;2.97;;;9.90;99.90;;;-144.05;74.36;125687.94;6155925;23;20364;-86
2022/07/17 03:18:06;;;;;;;6.50;3.50;;;9.90;99.90;;;-144.05;74.53;125687.94;6131868;23;20056;-86
2022/07/17 03:20:32;;;;;;;10.63;3.72;;;9.90;99.90;;;-144.05;74.54;125687.94;6156627;23;20043;-86
2022/07/17 03:22:58;;;;;;;7.47;3.30;;;9.80;99.90;;;-144.05;74.60;125687.94;6156471;23;20071;-86
2022/07/17 03:25:24;;;;;;;6.57;3.30;;;9.80;99.90;;;-144.05;74.53;125687.94;6156566;23;20009;-86
2022/07/17 03:27:50;;;;;;;10.52;3.33;;;9.80;99.90;;;-144.05;74.81;125687.94;6131127;23;20021;-87
2022/07/17 03:30:16;;;;;;;9.00;3.40;;;9.90;99.90;;;-144.05;74.78;125687.94;6155046;23;20005;-87
2022/07/17 03:32:42;;;;;;;7.43;2.95;;;9.90;99.90;;;-144.05;74.81;125687.94;6130531;23;20094;-86
2022/07/17 03:35:08;;;;;;;8.57;3.20;;;9.80;99.90;;;-144.05;74.63;125687.94;6155702;23;20006;-88
2022/07/17 03:37:37;;;;;;;8.48;3.15;;;9.80;99.90;;;-144.05;74.79;125687.94;6154899;23;20071;-85
2022/07/17 03:40:07;;;;;;;4.47;2.65;;;9.80;99.90;;;-144.05;74.84;125687.94;6154534;23;20029;-88
2022/07/17 03:42:33;;;;;;;5.90;3.20;;;9.80;99.90;;;-144.05;74.78;125687.94;6155067;23;20016;-88
2022/07/17 03:44:59;;;;;;;5.40;2.88;;;9.70;99.90;;;-144.05;74.68;125687.94;6155425;23;20014;-86
2022/07/17 03:47:25;;;;;;;7.90;3.35;;;9.70;99.90;;;-144.05;74.54;125687.94;6155399;23;20348;-86
2022/07/17 03:49:50;;;;;;;6.13;3.05;;;9.70;99.90;;;-144.05;74.63;125687.94;6130179;23;20019;-86
2022/07/17 03:52:16;;;;;;;5.88;3.00;;;9.60;99.90;;;-144.05;74.79;125687.94;6154851;23;20052;-87
2022/07/17 03:54:42;;;;;;;5.38;3.03;;;9.60;99.90;;;-144.05;75.01;125687.94;6156730;23;20009;-87
2022/07/17 03:57:08;;;;;;;7.45;3.40;;;9.60;99.90;;;-144.05;75.10;125687.94;6130376;23;20006;-87
2022/07/17 03:59:34;;;;;;;5.07;3.00;;;9.70;99.90;;;-144.05;75.40;125687.94;6131235;23;20040;-86
2022/07/17 04:02:00;;;;;;;9.50;3.85;;;9.60;99.90;;;-144.05;75.35;125687.94;6156176;23;20056;-85
2022/07/17 04:04:26;;;;;;;7.05;3.58;;;9.70;99.90;;;-144.05;75.30;125687.94;6157690;23;20006;-88
2022/07/17 04:06:52;;;;;;;7.93;3.50;;;9.70;99.90;;;-144.05;75.40;125687.94;6156109;23;20005;-86
2022/07/17 04:09:18;;;;;;;5.25;3.22;;;9.70;99.90;;;-144.05;75.29;125687.94;6155691;23;20012;-88
2022/07/17 04:11:44;;;;;;;5.53;2.97;;;9.70;99.90;;;-144.05;75.40;125687.94;6157500;23;20006;-87
2022/07/17 04:14:09;;;;;;;7.80;3.60;;;9.70;99.90;;;-144.05;75.43;125687.94;6156723;23;20011;-87
2022/07/17 04:16:35;;;;;;;8.35;3.33;;;9.80;99.90;;;-144.05;75.53;125687.94;6155966;23;20123;-87
2022/07/17 04:19:01;;;;;;;5.07;2.60;;;9.90;99.90;;;-144.05;75.85;125687.94;6131848;23;20020;-87
2022/07/17 04:21:27;;;;;;;4.60;3.08;;;9.90;99.90;;;-144.05;75.70;125687.94;6156697;23;20482;-88
2022/07/17 04:23:53;;;;;;;4.82;3.20;;;10.00;99.90;;;-144.05;75.54;125687.94;6156625;23;20013;-88
2022/07/17 04:26:19;;;;;;;5.97;2.88;;;10.00;99.90;;;-144.05;75.50;125687.94;6156219;23;20352;-86
2022/07/17 04:28:46;;;;;;;5.72;2.75;;;10.10;99.90;;;-144.05;75.49;125687.94;6156571;23;20009;-87
2022/07/17 04:31:12;;;;;;;4.68;2.70;;;10.10;99.90;;;-144.05;75.32;125687.94;6156306;23;20014;-86
2022/07/17 04:33:38;;;;;;;5.35;2.90;;;10.20;99.90;;;-144.05;75.53;125687.94;6156852;23;20420;-86
2022/07/17 04:36:04;;;;;;;5.38;2.40;;;10.20;99.90;;;-144.05;75.08;125687.94;6156423;23;20005;-86
2022/07/17 04:38:30;;;;;;;5.63;3.75;;;10.30;99.90;;;-144.05;75.20;125687.94;6135560;23;20518;-86
2022/07/17 04:40:57;;;;;;;6.65;2.92;;;10.30;99.90;;;-144.05;74.96;125687.94;6168219;23;20009;-86
2022/07/17 04:43:24;;;;;;;4.28;2.60;;;10.40;99.90;;;-144.05;75.18;125687.94;6158798;23;20072;-85
2022/07/17 04:45:50;;;;;;;6.07;2.67;;;10.50;99.90;;;-144.05;74.79;125687.94;6156448;23;20006;-85
2022/07/17 04:48:16;;;;;;;4.68;2.78;;;10.60;99.90;;;-144.05;74.48;125687.94;6131771;23;20033;-86
2022/07/17 04:50:41;;;;;;;6.13;2.75;;;10.70;99.90;;;-144.05;74.38;125687.94;6157597;23;20424;-88
2022/07/17 04:53:07;;;;;;;6.65;2.83;;;10.80;99.90;;;-144.05;73.92;125687.94;6156023;23;20014;-86
2022/07/17 04:55:33;;;;;;;5.63;3.03;;;10.80;99.90;;;-144.05;73.73;125687.94;6131308;23;20009;-87
2022/07/17 04:57:59;;;;;;;6.25;2.83;;;10.80;99.90;;;-144.05;73.77;125687.94;6157506;23;20562;-86
2022/07/17 05:00:25;;;;;;;6.78;3.00;;;11.00;99.90;;;-144.05;73.76;125687.94;6131455;23;20045;-90
2022/07/17 05:02:51;;;;;;;5.40;2.47;;;11.10;99.90;;;-144.05;73.47;125687.94;6162593;23;20025;-89
2022/07/17 05:05:17;;;;;;;8.50;3.25;;;11.20;99.90;;;-144.05;72.96;125687.94;6163644;23;20032;-90
2022/07/17 05:07:43;;;;;;;4.53;2.47;;;11.30;99.90;;;-144.05;72.76;125687.94;6139248;23;20013;-90
2022/07/17 05:10:09;;;;;;;3.92;2.70;;;11.50;99.90;;;-144.05;72.34;125687.94;6158120;23;20444;-87
2022/07/17 05:12:36;;;;;;;6.78;2.67;;;11.70;99.90;;;-144.05;71.63;125687.94;6156485;23;20013;-87
2022/07/17 05:15:03;;;;;;;4.35;2.63;;;11.90;99.90;;;-144.05;71.22;125687.94;6156411;23;20013;-86
2022/07/17 05:17:29;;;;;;;8.20;2.58;;;12.10;99.90;;;-144.05;70.93;125687.94;6155803;23;20005;-86
2022/07/17 05:19:55;;;;;;;5.47;2.38;;;12.40;99.90;;;-144.05;70.06;125687.94;6157050;23;20024;-86
2022/07/17 05:22:21;;;;;;;7.97;3.00;;;12.60;99.90;;;-144.05;69.29;125687.94;6155734;23;20036;-88
2022/07/17 05:24:47;;;;;;;4.15;2.38;;;12.80;99.90;;;-144.05;68.47;125687.94;6155968;23;20063;-85
2022/07/17 05:27:13;;;;;;;3.40;2.28;;;13.10;99.90;;;-144.05;67.27;125687.94;6156794;23;20009;-87
2022/07/17 05:29:39;;;;;;;7.10;2.40;;;13.40;99.90;;;-144.05;65.94;125687.94;6158470;23;20029;-88
2022/07/17 05:32:05;;;;;;;4.53;2.05;;;13.70;99.90;;;-144.05;64.38;125687.94;6157568;23;20033;-87
2022/07/17 05:34:31;;;;;;;5.00;2.30;;;14.00;99.90;;;-144.05;63.43;125687.94;6158222;23;20013;-89
2022/07/17 05:36:57;;;;;;;5.47;2.50;;;14.40;99.90;;;-144.05;62.09;125687.94;6133146;23;20036;-88
2022/07/17 05:39:22;;;;;;;4.45;1.90;;;14.70;99.90;;;-144.05;60.90;125687.94;6157467;23;20009;-87
2022/07/17 05:41:48;;;;;;;3.13;1.80;;;15.10;99.90;;;-144.05;59.45;125687.94;6157685;23;20059;-86
2022/07/17 05:44:14;;;;;;;5.25;1.90;;;15.30;99.90;;;-144.05;58.49;125687.94;6157824;23;20452;-86
2022/07/17 05:46:40;;;;;;;4.35;2.15;;;15.60;99.90;;;-144.05;57.12;125687.94;6157877;23;20400;-86
2022/07/17 05:49:06;;;;;;;3.30;1.48;;;15.90;99.90;;;-144.05;54.87;125687.94;6133341;23;20031;-86
2022/07/17 05:51:32;;;;;;;6.30;2.17;;;16.20;99.90;;;-144.05;53.78;125687.94;6132889;23;20009;-86
2022/07/17 05:53:59;;;;;;;6.65;1.80;;;16.50;99.90;;;-144.05;50.35;125687.94;6157827;23;20029;-89
2022/07/17 05:56:24;;;;;;;6.50;2.20;;;16.70;99.90;;;-144.05;50.17;125687.94;6157490;23;20005;-87
2022/07/17 05:58:50;;;;;;;5.00;1.55;;;16.90;99.90;;;-144.05;49.31;125687.94;6157056;23;20067;-88
2022/07/17 06:01:16;;;;;;;5.57;1.80;;;17.20;99.90;;;-144.05;48.37;125687.94;6157767;23;20017;-87
2022/07/17 06:03:42;;;;;;;7.25;1.55;;;17.40;99.90;;;-144.05;47.11;125687.94;6160668;23;20009;-88
2022/07/17 06:06:08;;;;;;;5.13;1.63;;;17.60;99.90;;;-144.05;46.40;125687.94;6158433;23;20013;-88
2022/07/17 06:08:34;;;;;;;7.47;1.70;;;17.80;99.90;;;-144.05;45.99;125687.94;6161574;23;20385;-88
2022/07/17 06:11:01;;;;;;;5.50;1.08;;;18.00;99.90;;;-144.05;44.47;125687.94;6162202;23;20009;-88
2022/07/17 06:13:27;;;;;;;3.90;1.02;;;18.20;99.90;;;-144.05;44.70;125687.94;6162049;23;20001;-89
2022/07/17 06:15:53;;;;;;;3.63;1.08;;;18.20;99.90;;;-144.05;44.29;125687.94;6162247;23;20347;-89
2022/07/17 06:18:19;;;;;;;8.18;1.63;;;18.60;99.90;;;-144.05;43.27;125687.94;6162721;23;20002;-89
2022/07/17 06:20:45;;;;;;;5.25;1.95;;;18.80;99.90;;;-144.05;43.00;125687.94;6163913;23;20005;-89
2022/07/17 06:23:11;;;;;;;7.68;1.60;;;19.00;99.90;;;-144.05;41.88;125687.94;6156171;23;20001;-90
2022/07/17 06:25:37;;;;;;;5.25;1.30;;;19.20;99.90;;;-144.05;41.71;125687.94;6181270;23;20010;-89
2022/07/17 06:28:03;;;;;;;4.68;1.27;;;19.20;99.90;;;-144.05;41.69;125687.94;6174620;23;20037;-87
2022/07/17 06:30:29;;;;;;;5.72;1.77;;;19.30;99.90;;;-144.05;41.46;125687.94;6156893;23;20001;-87
2022/07/17 06:32:55;;;;;;;4.45;1.48;;;19.40;99.90;;;-144.05;41.37;125687.94;6156749;23;20013;-87
2022/07/17 06:35:21;;;;;;;3.95;1.38;;;19.60;99.90;;;-144.05;40.77;125687.94;6157464;23;20089;-88
2022/07/17 06:37:46;;;;;;;3.22;1.27;;;19.70;99.90;;;-144.05;40.57;125687.94;6157002;23;20498;-89
2022/07/17 06:40:13;;;;;;;4.97;1.33;;;20.00;99.90;;;-144.05;39.78;125687.94;6133148;23;20092;-90
2022/07/17 06:42:39;;;;;;;6.88;1.77;;;20.30;99.90;;;-144.05;39.29;125687.94;6157222;23;20087;-87
2022/07/17 06:45:07;;;;;;;4.07;1.50;;;20.50;99.90;;;-144.05;39.26;125687.94;6157170;23;20428;-85
2022/07/17 06:47:33;;;;;;;5.60;1.25;;;20.70;99.90;;;-144.05;39.10;125687.94;6157093;23;20341;-86
2022/07/17 06:50:00;;;;;;;7.53;1.88;;;20.90;99.90;;;-144.05;39.03;125687.94;6157628;23;20025;-88
2022/07/17 06:52:26;;;;;;;6.70;1.95;;;20.90;99.90;;;-144.05;38.09;125687.94;6157931;23;20006;-87
2022/07/17 06:54:52;;;;;;;2.88;1.23;;;20.90;99.90;;;-144.05;38.03;125687.94;6145646;23;20013;-87
2022/07/17 06:57:19;;;;;;;9.30;1.67;;;20.90;99.60;;;-144.05;37.94;125687.94;6166025;23;20041;-86
2022/07/17 06:59:45;;;;;;;5.32;1.67;;;21.00;99.40;;;-144.05;38.33;125687.94;6157326;23;20014;-87
2022/07/17 07:02:11;;;;;;;5.50;1.80;;;21.00;99.70;;;-144.05;37.79;125687.94;6157437;23;20579;-89
2022/07/17 07:04:37;;;;;;;3.15;0.98;;;20.80;99.60;;;-144.05;38.52;125687.94;6156936;23;20037;-88
2022/07/17 07:07:03;;;;;;;5.32;1.83;;;20.90;99.90;;;-144.05;37.72;125687.94;6157130;23;20343;-89
2022/07/17 07:09:30;;;;;;;5.22;1.67;;;21.20;98.20;;;-144.05;37.25;125687.94;6158000;23;20362;-89
2022/07/17 07:11:56;;;;;;;5.22;1.40;;;21.40;97.10;;;-144.05;36.55;125687.94;6133334;23;20037;-88
2022/07/17 07:14:21;;;;;;;4.18;1.13;;;21.70;96.20;;;-144.05;35.76;125687.94;6157586;23;20017;-89
2022/07/17 07:16:47;;;;;;;7.45;1.63;;;22.00;94.10;;;-144.05;35.61;125687.94;6157814;23;20012;-89
2022/07/17 07:19:13;;;;;;;4.50;1.60;;;22.20;93.20;;;-144.05;35.60;125687.94;6158199;23;20436;-88
2022/07/17 07:21:39;;;;;;;4.72;1.23;;;22.20;92.90;;;-144.05;35.39;125687.94;6159764;23;20533;-90
2022/07/17 07:24:05;;;;;;;4.88;1.38;;;22.50;92.70;;;-144.05;35.21;125687.94;6159560;23;20084;-90
2022/07/17 07:26:31;;;;;;;5.75;1.50;;;22.80;92.40;;;-144.05;34.05;125687.94;6133674;23;20013;-89
2022/07/17 07:28:57;;;;;;;6.95;1.65;;;23.00;90.00;;;-144.05;33.98;125687.94;6160385;23;20387;-89
2022/07/17 07:31:23;;;;;;;6.45;1.73;;;23.10;87.70;;;-144.05;34.19;125687.94;6136099;23;20005;-89
2022/07/17 07:33:49;;;;;;;5.53;1.27;;;23.20;87.50;;;-144.05;33.69;125687.94;6162184;23;20123;-91
2022/07/17 07:36:17;;;;;;;5.25;1.30;;;23.50;84.90;;;-144.05;33.56;125687.94;6140327;23;20006;-90
2022/07/17 07:38:45;;;;;;;4.65;1.25;;;23.50;84.20;;;-144.05;33.30;125687.94;6165635;23;20010;-90
2022/07/17 07:41:12;;;;;;;5.05;1.30;;;23.60;82.50;;;-144.05;34.08;125687.94;6137918;23;20238;-89
2022/07/17 07:43:39;;;;;;;4.45;1.30;;;23.60;85.00;;;-144.05;33.14;125687.94;6137920;23;20335;-90
2022/07/17 07:46:08;;;;;;;7.25;1.55;;;23.60;82.30;;;-144.05;32.52;125687.94;6137370;23;20013;-88
2022/07/17 07:48:34;;;;;;;7.22;1.20;;;23.90;79.40;;;-144.05;32.57;125687.94;6138798;23;20005;-89
2022/07/17 07:51:00;;;;;;;4.53;1.20;;;24.20;79.80;;;-144.05;31.83;125687.94;6164877;23;20052;-89
2022/07/17 07:53:27;;;;;;;4.18;1.33;;;24.60;77.60;;;-144.05;31.02;125687.94;6162111;23;20006;-89
2022/07/17 07:55:53;;;;;;;3.15;1.02;;;24.80;75.20;;;-144.05;31.26;125687.94;6135530;23;20001;-89
2022/07/17 07:58:19;;;;;;;4.15;1.20;;;24.60;74.10;;;-144.05;31.61;125687.94;6161991;23;20012;-88
2022/07/17 08:00:46;;;;;;;5.18;1.10;;;24.60;75.10;;;-144.05;31.72;125687.94;6135820;23;20013;-89
2022/07/17 08:03:13;;;;;;;4.28;1.13;;;24.70;74.80;;;-144.05;31.04;125687.94;6164384;23;20009;-89
2022/07/17 08:05:40;;;;;;;7.88;1.40;;;24.90;72.10;;;-144.05;30.85;125687.94;6161720;23;20009;-86
2022/07/17 08:08:06;;;;;;;3.05;0.90;;;25.20;71.40;;;-144.05;30.44;125687.94;6134908;23;20014;-89
2022/07/17 08:10:33;;;;;;;3.10;1.10;;;25.40;71.10;;;-144.05;30.28;125687.94;6135949;23;20009;-88
2022/07/17 08:12:59;;;;;;;2.97;1.20;;;25.50;69.20;;;-144.05;30.42;125687.94;6160071;23;20043;-88
2022/07/17 08:15:26;;;;;;;4.03;1.25;;;25.70;69.60;;;-144.05;29.58;125687.94;6159651;23;20041;-90
2022/07/17 08:17:54;;;;;;;4.53;1.38;;;25.70;67.10;;;-144.05;30.00;125687.94;6160826;23;20032;-87
2022/07/17 08:20:21;;;;;;;4.30;1.08;;;25.80;67.20;;;-144.05;29.46;125687.94;6159747;23;20006;-88
2022/07/17 08:22:49;;;;;;;5.05;1.45;;;25.70;65.20;;;-144.05;29.82;125687.94;6159190;23;20013;-89
2022/07/17 08:25:15;;;;;;;7.43;1.27;;;25.70;67.10;;;-144.05;29.84;125687.94;6158953;23;20385;-88
2022/07/17 08:27:45;;;;;;;4.20;1.17;;;25.70;66.30;;;-144.05;30.04;125687.94;6133793;23;20013;-89
2022/07/17 08:30:14;;;;;;;3.13;1.20;;;25.90;66.60;;;-144.05;29.57;125687.94;6133561;23;20014;-90
2022/07/17 08:32:42;;;;;;;6.50;1.20;;;26.00;65.10;;;-144.05;29.25;125687.94;6159628;23;20072;-89
2022/07/17 08:35:10;;;;;;;5.25;1.40;;;26.10;64.70;;;-144.05;28.88;125687.94;6159163;23;20009;-89
2022/07/17 08:37:52;;;;;;;4.32;1.40;;;26.10;62.90;;;-144.05;29.23;125687.94;6159392;23;20514;-89
2022/07/17 08:40:34;;;;;;;4.53;1.33;;;26.00;64.50;;;-144.05;29.49;125687.94;6133726;23;20073;-89
2022/07/17 08:43:04;;;;;;;2.85;1.00;;;26.00;65.60;;;-144.05;28.59;125687.94;6158666;23;20016;-87
2022/07/17 08:45:31;;;;;;;4.07;1.23;;;26.10;62.30;;;-144.05;28.68;125687.94;6158929;23;20027;-89
2022/07/17 08:47:58;;;;;;;5.07;1.27;;;26.00;61.70;;;-144.05;29.36;125687.94;6157879;23;20353;-87
2022/07/17 08:50:31;;;;;;;3.88;1.10;;;26.10;64.00;;;-144.05;28.93;125687.94;6157966;23;20001;-88
2022/07/17 08:52:59;;;;;;;4.47;1.33;;;26.40;63.00;;;-144.05;28.25;125687.94;6161360;23;20013;-87
2022/07/17 08:55:25;;;;;;;4.47;0.70;;;26.50;60.30;;;-144.05;28.69;125687.94;6159605;23;20005;-88
2022/07/17 08:57:51;;;;;;;3.22;1.02;;;26.70;61.80;;;-144.05;28.40;125687.94;6159547;23;20443;-88
2022/07/17 09:00:23;;;;;;;5.05;1.13;;;26.60;60.40;;;-144.05;28.53;125687.94;6159325;23;20009;-90
2022/07/17 09:03:06;;;;;;;4.05;1.30;;;26.90;61.50;;;-144.05;27.79;125687.94;6159146;23;20013;-89
2022/07/17 09:05:40;;;;;;;4.05;1.13;;;27.20;59.50;;;-144.05;27.21;125687.94;6158986;23;20364;-89
2022/07/17 09:08:19;;;;;;;3.28;1.13;;;27.20;57.90;;;-144.05;28.34;125687.94;6159927;23;20016;-87
2022/07/17 09:10:53;;;;;;;3.28;1.15;;;27.10;60.00;;;-144.05;27.99;125687.94;6170856;23;20009;-90
2022/07/17 09:13:30;;;;;;;6.15;1.20;;;27.20;59.60;;;-144.05;27.93;125687.94;6166038;23;20010;-88
2022/07/17 09:16:10;;;;;;;6.72;1.20;;;27.10;59.20;;;-144.05;27.80;125687.94;6158788;23;20372;-88
2022/07/17 09:18:50;;;;;;;6.05;1.17;;;27.30;58.40;;;-144.05;27.09;125687.94;6160952;23;20010;-89
2022/07/17 09:21:26;;;;;;;4.97;0.88;;;27.30;57.10;;;-144.05;27.57;125687.94;6161550;23;20068;-90
2022/07/17 09:24:04;;;;;;;3.47;1.23;;;27.30;58.50;;;-144.05;27.65;125687.94;6160260;23;20057;-90
2022/07/17 09:26:33;;;;;;;3.30;1.00;;;27.60;59.00;;;-144.05;27.15;125687.94;6136214;23;20376;-88
2022/07/17 09:29:04;;;;;;;3.17;1.15;;;27.60;56.90;;;-144.05;26.84;125687.94;6161335;23;20009;-89
2022/07/17 09:31:33;;;;;;;4.18;1.10;;;27.80;56.60;;;-144.05;26.50;125687.94;6160959;23;20384;-89
2022/07/17 09:34:00;;;;;;;2.30;0.90;;;27.80;55.20;;;-144.05;25.97;125687.94;6161518;23;20548;-89
2022/07/17 09:36:28;;;;;;;2.50;1.00;;;27.90;54.40;;;-144.05;25.77;125687.94;6161624;23;20010;-89
2022/07/17 09:38:57;;;;;;;2.97;1.02;;;27.60;54.00;;;-144.05;26.29;125687.94;6161105;23;20006;-90
2022/07/17 09:41:29;;;;;;;3.42;1.13;;;27.70;54.80;;;-144.05;26.37;125687.94;6161924;23;20012;-89
2022/07/17 09:44:00;;;;;;;1.92;1.02;;;27.60;53.90;;;-144.05;26.83;125687.94;6160437;23;20088;-89
2022/07/17 09:46:31;;;;;;;2.88;0.90;;;27.60;55.20;;;-144.05;26.22;125687.94;6160968;23;20006;-89
2022/07/17 09:49:08;;;;;;;5.57;1.30;;;27.60;52.80;;;-144.05;26.39;125687.94;6161806;23;20009;-90
2022/07/17 09:51:38;;;;;;;3.45;1.10;;;27.60;54.60;;;-144.05;26.31;125687.94;6162404;23;20014;-89
2022/07/17 09:54:15;;;;;;;4.25;1.25;;;27.60;53.80;;;-144.05;26.68;125687.94;6138416;23;20005;-90
2022/07/17 09:57:53;;;;;;;3.95;1.00;;;27.60;54.90;;;-144.05;26.66;125687.94;6147079;23;20050;-85
2022/07/17 10:00:48;;;;;;;;;;;;;;;;;;;;;
2022/07/17 10:03:23;;;;;;;3.17;1.00;;;27.90;53.90;;;-144.05;25.99;125687.94;6090069;23;20010;-85
2022/07/17 10:05:57;;;;;;;3.10;1.63;;;27.70;53.00;;;-144.05;26.17;125687.94;6148590;23;20013;-85